createdAt,value
2023-06-22T00:00:18.519Z,100850.47
2023-06-22T00:03:22.882Z,100840.16
2023-06-22T00:06:25.760Z,100835.94
2023-06-22T00:09:28.632Z,100826.50
2023-06-22T00:12:31.631Z,100825.50
2023-06-22T00:15:35.194Z,100813.06
2023-06-22T00:18:38.011Z,100803.91
2023-06-22T00:21:40.739Z,100797.69
2023-06-22T00:24:43.732Z,100793.34
2023-06-22T00:27:46.568Z,100773.88
2023-06-22T00:30:50.837Z,100780.94
2023-06-22T00:33:55.021Z,100791.72
2023-06-22T00:36:57.760Z,100789.56
2023-06-22T00:40:00.516Z,100789.00
2023-06-22T00:43:04.009Z,100790.63
2023-06-22T00:46:07.017Z,100812.84
2023-06-22T00:49:09.992Z,100821.72
2023-06-22T00:52:15.259Z,100814.47
2023-06-22T00:55:19.175Z,100814.22
2023-06-22T00:58:23.203Z,100822.38
2023-06-22T01:01:26.154Z,100836.50
2023-06-22T01:04:36.856Z,100847.88
2023-06-22T01:07:49.759Z,100839.53
2023-06-22T01:11:06.941Z,100837.66
2023-06-22T01:14:23.943Z,100828.75
2023-06-22T01:17:28.843Z,100822.31
2023-06-22T01:20:33.417Z,100837.19
2023-06-22T01:24:24.972Z,100842.06
2023-06-22T01:27:38.189Z,100856.09
2023-06-22T01:30:41.843Z,100855.56
2023-06-22T01:33:48.251Z,100878.56
2023-06-22T01:36:52.990Z,100879.66
2023-06-22T01:39:57.050Z,100887.75
2023-06-22T01:43:02.471Z,100886.44
2023-06-22T01:46:05.401Z,100886.44
2023-06-22T01:49:09.276Z,100881.03
2023-06-22T01:52:12.922Z,100874.31
2023-06-22T01:55:15.724Z,100878.66
2023-06-22T01:58:21.472Z,100889.72
2023-06-22T02:01:32.975Z,100894.88
2023-06-22T02:05:08.211Z,100915.13
2023-06-22T02:08:17.811Z,100901.34
2023-06-22T02:11:22.806Z,100911.91
2023-06-22T02:14:26.953Z,100902.19
2023-06-22T02:17:34.273Z,100907.56
2023-06-22T02:20:38.902Z,100909.47
2023-06-22T02:23:41.616Z,100904.88
2023-06-22T02:26:46.737Z,100909.22
2023-06-22T02:29:49.494Z,100904.06
2023-06-22T02:33:00.392Z,100901.13
2023-06-22T02:36:06.469Z,100901.16
2023-06-22T02:39:09.376Z,100903.88
2023-06-22T02:42:13.478Z,100908.44
2023-06-22T02:45:16.349Z,100895.25
2023-06-22T02:48:20.047Z,100892.81
2023-06-22T02:51:22.799Z,100900.38
2023-06-22T02:54:25.557Z,100903.91
2023-06-22T02:57:31.268Z,100897.94
2023-06-22T03:00:34.472Z,100893.09
2023-06-22T03:03:37.262Z,100902.22
2023-06-22T03:06:42.068Z,100902.00
2023-06-22T03:09:45.123Z,100895.50
2023-06-22T03:12:48.509Z,100903.84
2023-06-22T03:15:51.364Z,100909.81
2023-06-22T03:18:54.780Z,100923.88
2023-06-22T03:21:57.548Z,100927.91
2023-06-22T03:25:02.108Z,100930.91
2023-06-22T03:28:05.121Z,100929.25
2023-06-22T03:31:08.141Z,100928.69
2023-06-22T03:34:12.374Z,100928.94
2023-06-22T03:37:15.956Z,100940.53
2023-06-22T03:40:18.950Z,100942.38
2023-06-22T03:43:22.048Z,100946.16
2023-06-22T03:46:25.011Z,100939.38
2023-06-22T03:49:28.553Z,100931.81
2023-06-22T03:52:31.667Z,100936.66
2023-06-22T03:55:35.516Z,100940.16
2023-06-22T03:58:44.205Z,100940.38
2023-06-22T04:01:47.821Z,100933.94
2023-06-22T04:04:50.590Z,100938.03
2023-06-22T04:07:53.359Z,100929.13
2023-06-22T04:10:56.083Z,100927.50
2023-06-22T04:13:58.857Z,100932.94
2023-06-22T04:17:01.617Z,100936.97
2023-06-22T04:20:05.328Z,100934.53
2023-06-22T04:23:08.168Z,100942.38
2023-06-22T04:26:10.833Z,100939.38
2023-06-22T04:29:14.263Z,100946.59
2023-06-22T04:32:17.599Z,100950.25
2023-06-22T04:35:20.383Z,100956.72
2023-06-22T04:38:23.170Z,100956.72
2023-06-22T04:41:25.865Z,100946.06
2023-06-22T04:44:29.035Z,100946.78
2023-06-22T04:47:31.838Z,100939.56
2023-06-22T04:50:34.627Z,100946.22
2023-06-22T04:53:37.320Z,100944.47
2023-06-22T04:56:42.135Z,100940.53
2023-06-22T04:59:45.488Z,100942.50
2023-06-22T05:02:48.647Z,100935.88
2023-06-22T05:05:51.481Z,100944.59
2023-06-22T05:09:01.241Z,100938.88
2023-06-22T05:12:07.736Z,100944.19
2023-06-22T05:15:11.880Z,100940.25
2023-06-22T05:18:14.772Z,100945.47
2023-06-22T05:21:17.636Z,100945.47
2023-06-22T05:24:20.461Z,100954.78
2023-06-22T05:27:23.383Z,100958.53
2023-06-22T05:30:26.120Z,100952.16
2023-06-22T05:33:28.963Z,100959.78
2023-06-22T05:36:31.715Z,100955.56
2023-06-22T05:39:34.434Z,100959.97
2023-06-22T05:42:37.184Z,100962.47
2023-06-22T05:45:39.976Z,100960.72
2023-06-22T05:48:42.748Z,100962.69
2023-06-22T05:51:45.628Z,100960.44
2023-06-22T05:54:50.941Z,100956.97
2023-06-22T05:57:53.844Z,100959.16
2023-06-22T06:00:56.763Z,100951.53
2023-06-22T06:04:01.003Z,100958.66
2023-06-22T06:07:15.820Z,100963.41
2023-06-22T06:10:22.040Z,100962.69
2023-06-22T06:13:29.346Z,100960.09
2023-06-22T06:16:32.214Z,100954.31
2023-06-22T06:19:35.250Z,100961.47
2023-06-22T06:22:37.956Z,100961.53
2023-06-22T06:26:30.884Z,100961.09
2023-06-22T06:29:34.004Z,100970.09
2023-06-22T06:32:36.741Z,100971.81
2023-06-22T06:35:39.723Z,100973.75
2023-06-22T06:38:42.426Z,100967.72
2023-06-22T06:41:45.309Z,100962.09
2023-06-22T06:44:51.835Z,100964.84
2023-06-22T06:48:10.670Z,100964.19
2023-06-22T06:51:27.890Z,100964.81
2023-06-22T06:54:31.113Z,100967.19
2023-06-22T06:57:35.146Z,100964.03
2023-06-22T07:00:38.212Z,100960.97
2023-06-22T07:03:41.010Z,100953.22
2023-06-22T07:06:47.158Z,100955.38
2023-06-22T07:09:49.942Z,100964.22
2023-06-22T07:12:55.945Z,100954.78
2023-06-22T07:16:02.871Z,100951.59
2023-06-22T07:19:06.809Z,100948.09
2023-06-22T07:22:13.358Z,100938.63
2023-06-22T07:25:16.652Z,100934.28
2023-06-22T07:28:20.802Z,100934.34
2023-06-22T07:31:28.101Z,100928.34
2023-06-22T07:34:30.939Z,100929.97
2023-06-22T07:37:35.267Z,100932.56
2023-06-22T07:40:38.022Z,100933.47
2023-06-22T07:43:40.770Z,100932.00
2023-06-22T07:46:43.742Z,100929.44
2023-06-22T07:49:47.753Z,100932.78
2023-06-22T07:52:50.854Z,100933.53
2023-06-22T07:55:53.691Z,100926.88
2023-06-22T07:58:59.398Z,100931.34
2023-06-22T08:02:08.509Z,100922.16
2023-06-22T08:05:20.871Z,100923.69
2023-06-22T08:08:25.366Z,100927.41
2023-06-22T08:11:28.521Z,100914.84
2023-06-22T08:14:31.655Z,100918.22
2023-06-22T08:17:35.019Z,100918.84
2023-06-22T08:20:37.935Z,100916.09
2023-06-22T08:23:40.814Z,100919.59
2023-06-22T08:26:43.660Z,100904.34
2023-06-22T08:29:50.899Z,100907.53
2023-06-22T08:32:55.069Z,100911.66
2023-06-22T08:35:59.720Z,100917.56
2023-06-22T08:39:04.472Z,100912.75
2023-06-22T08:42:07.617Z,100921.66
2023-06-22T08:45:11.220Z,100910.69
2023-06-22T08:48:14.068Z,100914.19
2023-06-22T08:51:19.971Z,100921.25
2023-06-22T08:54:22.807Z,100912.31
2023-06-22T08:57:25.550Z,100913.44
2023-06-22T09:00:30.541Z,100902.75
2023-06-22T09:03:34.324Z,100902.41
2023-06-22T09:06:39.301Z,100902.00
2023-06-22T09:09:42.163Z,100900.00
2023-06-22T09:12:45.055Z,100886.47
2023-06-22T09:15:47.944Z,100888.06
2023-06-22T09:18:51.013Z,100889.69
2023-06-22T09:21:53.893Z,100879.78
2023-06-22T09:24:57.331Z,100874.69
2023-06-22T09:28:00.178Z,100873.78
2023-06-22T09:31:05.828Z,100877.28
2023-06-22T09:34:08.641Z,100879.91
2023-06-22T09:37:11.481Z,100867.88
2023-06-22T09:40:17.029Z,100865.44
2023-06-22T09:43:19.912Z,100860.53
2023-06-22T09:46:26.621Z,100857.13
2023-06-22T09:49:47.307Z,100858.69
2023-06-22T09:52:56.114Z,100860.59
2023-06-22T09:55:59.562Z,100854.53
2023-06-22T09:59:17.109Z,100854.75
2023-06-22T10:02:21.194Z,100849.94
2023-06-22T10:05:24.589Z,100844.38
2023-06-22T10:08:27.702Z,100842.03
2023-06-22T10:11:32.077Z,100849.06
2023-06-22T10:14:34.932Z,100845.25
2023-06-22T10:17:37.708Z,100843.25
2023-06-22T10:20:40.740Z,100849.25
2023-06-22T10:23:43.525Z,100841.66
2023-06-22T10:26:46.303Z,100836.00
2023-06-22T10:29:50.088Z,100840.00
2023-06-22T10:32:53.302Z,100845.38
2023-06-22T10:36:08.526Z,100840.75
2023-06-22T10:39:14.002Z,100844.78
2023-06-22T10:42:16.762Z,100837.16
2023-06-22T10:45:20.247Z,100835.13
2023-06-22T10:48:23.001Z,100834.53
2023-06-22T10:51:26.884Z,100840.59
2023-06-22T10:54:30.369Z,100836.25
2023-06-22T10:57:33.216Z,100823.44
2023-06-22T11:00:35.943Z,100823.28
2023-06-22T11:03:38.855Z,100827.25
2023-06-22T11:06:41.780Z,100820.03
2023-06-22T11:09:45.065Z,100820.97
2023-06-22T11:12:47.961Z,100812.47
2023-06-22T11:15:50.868Z,100823.41
2023-06-22T11:18:53.632Z,100810.31
2023-06-22T11:21:56.362Z,100812.16
2023-06-22T11:24:59.100Z,100811.56
2023-06-22T11:28:05.486Z,100811.81
2023-06-22T11:31:24.398Z,100808.59
2023-06-22T11:34:29.255Z,100811.03
2023-06-22T11:37:32.519Z,100803.16
2023-06-22T11:40:38.327Z,100813.88
2023-06-22T11:43:41.144Z,100807.28
2023-06-22T11:46:43.850Z,100804.75
2023-06-22T11:49:47.145Z,100805.53
2023-06-22T11:52:49.915Z,100804.72
2023-06-22T11:55:53.868Z,100798.66
2023-06-22T11:58:56.633Z,100803.47
2023-06-22T12:01:59.843Z,100790.03
2023-06-22T12:05:06.226Z,100790.06
2023-06-22T12:08:09.103Z,100796.44
2023-06-22T12:11:11.797Z,100782.03
2023-06-22T12:14:14.638Z,100782.34
2023-06-22T12:17:17.475Z,100778.00
2023-06-22T12:20:20.660Z,100776.19
2023-06-22T12:23:23.378Z,100774.66
2023-06-22T12:26:26.216Z,100767.94
2023-06-22T12:29:29.021Z,100770.28
2023-06-22T12:32:31.856Z,100762.06
2023-06-22T12:35:34.554Z,100771.03
2023-06-22T12:38:37.334Z,100767.31
2023-06-22T12:41:40.163Z,100771.56
2023-06-22T12:44:43.504Z,100765.25
2023-06-22T12:47:46.345Z,100764.44
2023-06-22T12:50:49.282Z,100766.59
2023-06-22T12:53:52.091Z,100763.16
2023-06-22T12:56:56.243Z,100758.09
2023-06-22T13:00:01.680Z,100760.91
2023-06-22T13:03:04.573Z,100750.88
2023-06-22T13:06:07.315Z,100741.75
2023-06-22T13:12:17.167Z,100732.97
2023-06-22T13:15:19.889Z,100720.69
2023-06-22T13:18:22.689Z,100728.06
2023-06-22T13:21:25.499Z,100718.59
2023-06-22T13:24:28.243Z,100722.53
2023-06-22T13:27:30.954Z,100718.66
2023-06-22T13:30:33.885Z,100719.59
2023-06-22T13:33:36.737Z,100719.78
2023-06-22T13:36:39.574Z,100710.66
2023-06-22T13:39:43.143Z,100716.94
2023-06-22T13:42:45.902Z,100720.44
2023-06-22T13:45:48.597Z,100714.09
2023-06-22T13:48:51.321Z,100706.84
2023-06-22T13:51:54.074Z,100709.94
2023-06-22T13:54:56.998Z,100700.41
2023-06-22T13:57:59.862Z,100701.09
2023-06-22T14:01:02.644Z,100699.72
2023-06-22T14:04:05.633Z,100692.78
2023-06-22T14:07:08.667Z,100692.44
2023-06-22T14:10:11.416Z,100687.91
2023-06-22T14:13:14.116Z,100693.31
2023-06-22T14:16:16.877Z,100690.38
2023-06-22T14:19:19.831Z,100697.53
2023-06-22T14:22:23.598Z,100688.81
2023-06-22T14:25:26.482Z,100687.06
2023-06-22T14:28:29.199Z,100683.75
2023-06-22T14:31:31.963Z,100678.72
2023-06-22T14:34:37.192Z,100673.56
2023-06-22T14:37:39.987Z,100683.06
2023-06-22T14:40:53.871Z,100677.50
2023-06-22T14:44:05.456Z,100667.19
2023-06-22T14:47:08.853Z,100672.56
2023-06-22T14:50:11.739Z,100671.19
2023-06-22T14:53:15.465Z,100667.97
2023-06-22T14:56:18.263Z,100665.50
2023-06-22T14:59:20.972Z,100655.31
2023-06-22T15:02:24.438Z,100652.94
2023-06-22T15:05:27.368Z,100659.03
2023-06-22T15:08:30.601Z,100662.44
2023-06-22T15:11:34.849Z,100650.59
2023-06-22T15:14:37.779Z,100649.91
2023-06-22T15:17:40.554Z,100646.53
2023-06-22T15:20:46.665Z,100648.16
2023-06-22T15:23:49.459Z,100640.47
2023-06-22T15:26:52.316Z,100639.00
2023-06-22T15:29:55.088Z,100636.16
2023-06-22T15:33:01.322Z,100637.38
2023-06-22T15:36:05.783Z,100636.88
2023-06-22T15:39:08.726Z,100639.53
2023-06-22T15:42:11.507Z,100632.16
2023-06-22T15:45:14.715Z,100632.13
2023-06-22T15:48:17.490Z,100643.59
2023-06-22T15:51:20.207Z,100635.91
2023-06-22T15:54:22.963Z,100634.72
2023-06-22T15:57:27.706Z,100636.84
2023-06-22T16:00:30.818Z,100644.56
2023-06-22T16:03:33.847Z,100642.16
2023-06-22T16:06:37.187Z,100637.31
2023-06-22T16:09:40.731Z,100636.03
2023-06-22T16:12:45.264Z,100631.47
2023-06-22T16:15:47.925Z,100631.16
2023-06-22T16:18:51.132Z,100629.53
2023-06-22T16:21:53.904Z,100626.03
2023-06-22T16:24:57.116Z,100625.47
2023-06-22T16:27:59.973Z,100624.44
2023-06-22T16:31:02.792Z,100624.88
2023-06-22T16:34:05.829Z,100622.47
2023-06-22T16:37:08.579Z,100624.25
2023-06-22T16:40:11.573Z,100628.81
2023-06-22T16:43:14.326Z,100621.53
2023-06-22T16:46:17.160Z,100625.38
2023-06-22T16:49:19.971Z,100620.06
2023-06-22T16:52:22.740Z,100625.31
2023-06-22T16:55:25.834Z,100621.13
2023-06-22T16:58:30.009Z,100618.84
2023-06-22T17:01:34.649Z,100619.00
2023-06-22T17:04:38.458Z,100622.28
2023-06-22T17:07:48.764Z,100629.81
2023-06-22T17:10:51.905Z,100630.53
2023-06-22T17:13:55.233Z,100620.97
2023-06-22T17:16:59.137Z,100618.38
2023-06-22T17:20:02.114Z,100617.94
2023-06-22T17:23:04.979Z,100618.94
2023-06-22T17:26:08.484Z,100620.72
2023-06-22T17:29:11.292Z,100617.66
2023-06-22T17:32:14.630Z,100619.97
2023-06-22T17:35:17.665Z,100622.16
2023-06-22T17:38:23.719Z,100622.41
2023-06-22T17:41:34.082Z,100624.28
2023-06-22T17:44:37.372Z,100616.03
2023-06-22T17:47:40.127Z,100613.53
2023-06-22T17:50:43.649Z,100611.94
2023-06-22T17:53:51.113Z,100603.31
2023-06-22T17:56:53.981Z,100603.00
2023-06-22T17:59:56.751Z,100600.63
2023-06-22T18:02:59.978Z,100601.50
2023-06-22T18:06:02.827Z,100601.66
2023-06-22T18:09:07.142Z,100603.34
2023-06-22T18:12:12.341Z,100595.28
2023-06-22T18:15:15.200Z,100602.81
2023-06-22T18:18:18.558Z,100599.25
2023-06-22T18:21:22.631Z,100600.72
2023-06-22T18:24:25.855Z,100595.34
2023-06-22T18:27:29.508Z,100592.94
2023-06-22T18:30:32.994Z,100589.72
2023-06-22T18:33:35.799Z,100591.41
2023-06-22T18:36:44.024Z,100596.84
2023-06-22T18:39:51.237Z,100594.59
2023-06-22T18:43:00.948Z,100605.03
2023-06-22T18:46:35.996Z,100598.84
2023-06-22T18:49:42.249Z,100608.13
2023-06-22T18:52:44.958Z,100607.09
2023-06-22T18:55:52.185Z,100602.69
2023-06-22T18:58:58.066Z,100603.06
2023-06-22T19:02:03.646Z,100610.06
2023-06-22T19:05:12.386Z,100621.81
2023-06-22T19:08:15.224Z,100627.16
2023-06-22T19:11:17.962Z,100632.34
2023-06-22T19:14:24.378Z,100636.53
2023-06-22T19:17:27.176Z,100641.53
2023-06-22T19:20:35.393Z,100640.72
2023-06-22T19:23:42.157Z,100647.50
2023-06-22T19:26:52.351Z,100642.41
2023-06-22T19:29:57.035Z,100646.63
2023-06-22T19:33:00.869Z,100649.63
2023-06-22T19:36:04.402Z,100646.44
2023-06-22T19:39:07.144Z,100650.00
2023-06-22T19:42:10.563Z,100647.75
2023-06-22T19:45:18.457Z,100656.91
2023-06-22T19:48:26.002Z,100656.75
2023-06-22T19:51:37.620Z,100650.97
2023-06-22T19:54:41.789Z,100654.50
2023-06-22T19:57:47.434Z,100666.38
2023-06-22T20:00:56.252Z,100673.84
2023-06-22T20:03:59.083Z,100655.75
2023-06-22T20:07:06.587Z,100658.47
2023-06-22T20:10:20.737Z,100660.38
2023-06-22T20:13:23.474Z,100668.41
2023-06-22T20:16:30.673Z,100659.56
2023-06-22T20:19:43.739Z,100662.25
2023-06-22T20:22:47.607Z,100670.44
2023-06-22T20:25:53.173Z,100666.25
2023-06-22T20:28:56.115Z,100672.16
2023-06-22T20:32:10.153Z,100666.03
2023-06-22T20:35:13.001Z,100666.66
2023-06-22T20:38:16.370Z,100662.94
2023-06-22T20:41:19.215Z,100665.38
2023-06-22T20:44:22.845Z,100661.66
2023-06-22T20:47:25.685Z,100659.06
2023-06-22T20:50:32.379Z,100658.28
2023-06-22T20:53:35.152Z,100656.31
2023-06-22T20:56:37.931Z,100649.41
2023-06-22T20:59:40.782Z,100655.78
2023-06-22T21:02:45.260Z,100645.03
2023-06-22T21:05:48.160Z,100641.97
2023-06-22T21:08:50.958Z,100646.31
2023-06-22T21:11:54.351Z,100638.91
2023-06-22T21:14:57.705Z,100645.50
2023-06-22T21:18:00.483Z,100645.59
2023-06-22T21:21:03.349Z,100643.00
2023-06-22T21:24:06.438Z,100641.81
2023-06-22T21:27:09.300Z,100647.72
2023-06-22T21:30:14.350Z,100638.75
2023-06-22T21:33:17.060Z,100641.28
2023-06-22T21:36:19.892Z,100636.88
2023-06-22T21:39:22.723Z,100631.38
2023-06-22T21:42:28.126Z,100632.63
2023-06-22T21:45:31.070Z,100639.31
2023-06-22T21:48:33.962Z,100636.16
2023-06-22T21:51:36.813Z,100637.22
2023-06-22T21:54:39.746Z,100643.25
2023-06-22T21:57:42.415Z,100646.59
2023-06-22T22:00:45.081Z,100634.25
2023-06-22T22:03:47.873Z,100631.03
2023-06-22T22:06:52.006Z,100625.72
2023-06-22T22:09:55.050Z,100626.53
2023-06-22T22:12:57.885Z,100629.34
2023-06-22T22:16:00.954Z,100631.88
2023-06-22T22:19:03.881Z,100626.44
2023-06-22T22:22:07.033Z,100627.53
2023-06-22T22:25:09.875Z,100633.88
2023-06-22T22:28:12.548Z,100628.78
2023-06-22T22:31:16.099Z,100625.56
2023-06-22T22:34:18.815Z,100613.81
2023-06-22T22:37:21.700Z,100608.38
2023-06-22T22:40:24.406Z,100610.59
2023-06-22T22:43:27.125Z,100612.31
2023-06-22T22:46:58.880Z,100604.59
2023-06-22T22:50:01.942Z,100605.38
2023-06-22T22:53:05.391Z,100613.94
2023-06-22T22:56:08.288Z,100596.53
2023-06-22T22:59:11.007Z,100589.72
2023-06-22T23:02:13.721Z,100589.72
2023-06-22T23:05:16.550Z,100584.38
2023-06-22T23:08:19.373Z,100575.03
2023-06-22T23:11:22.145Z,100564.59
2023-06-22T23:14:24.966Z,100564.69
2023-06-22T23:17:28.007Z,100566.09
2023-06-22T23:20:30.831Z,100561.06
2023-06-22T23:23:33.807Z,100552.81
2023-06-22T23:26:36.656Z,100539.19
2023-06-22T23:29:39.441Z,100535.47
2023-06-22T23:32:42.360Z,100543.22
2023-06-22T23:35:45.753Z,100539.97
2023-06-22T23:38:48.445Z,100538.16
2023-06-22T23:41:51.518Z,100538.16
2023-06-22T23:44:54.600Z,100546.41
2023-06-22T23:47:57.482Z,100545.91
2023-06-22T23:51:00.482Z,100534.91
2023-06-22T23:54:03.316Z,100525.28
2023-06-22T23:57:07.248Z,100527.28
